sensor_id;sensor_type;location;lat;lon;timestamp;P1;durP1;ratioP1;P2;durP2;ratioP2
45316;SDS011;31053;55.870;37.592;2022-07-29T00:02:14;5.70;;;3.22;;
45316;SDS011;31053;55.870;37.592;2022-07-29T00:05:19;2.97;;;0.80;;
45316;SDS011;31053;55.870;37.592;2022-07-29T00:08:24;7.80;;;0.88;;
45316;SDS011;31053;55.870;37.592;2022-07-29T00:11:28;3.90;;;0.98;;
45316;SDS011;31053;55.870;37.592;2022-07-29T00:14:32;5.80;;;0.70;;
45316;SDS011;31053;55.870;37.592;2022-07-29T00:17:37;9.25;;;1.00;;
45316;SDS011;31053;55.870;37.592;2022-07-29T00:20:41;1.85;;;0.77;;
45316;SDS011;31053;55.870;37.592;2022-07-29T00:23:46;2.55;;;0.70;;
45316;SDS011;31053;55.870;37.592;2022-07-29T00:26:52;2.40;;;0.90;;
45316;SDS011;31053;55.870;37.592;2022-07-29T00:29:58;2.17;;;0.83;;
45316;SDS011;31053;55.870;37.592;2022-07-29T00:33:03;3.60;;;1.08;;
45316;SDS011;31053;55.870;37.592;2022-07-29T00:36:08;4.60;;;1.20;;
45316;SDS011;31053;55.870;37.592;2022-07-29T00:39:14;3.22;;;0.80;;
45316;SDS011;31053;55.870;37.592;2022-07-29T00:42:18;3.70;;;0.95;;
45316;SDS011;31053;55.870;37.592;2022-07-29T00:45:23;3.47;;;0.80;;
45316;SDS011;31053;55.870;37.592;2022-07-29T00:48:28;5.55;;;1.27;;
45316;SDS011;31053;55.870;37.592;2022-07-29T00:51:36;11.30;;;1.05;;
45316;SDS011;31053;55.870;37.592;2022-07-29T00:54:41;8.07;;;1.08;;
45316;SDS011;31053;55.870;37.592;2022-07-29T00:57:46;4.68;;;1.40;;
45316;SDS011;31053;55.870;37.592;2022-07-29T01:00:52;9.82;;;1.70;;
45316;SDS011;31053;55.870;37.592;2022-07-29T01:03:57;6.88;;;1.15;;
45316;SDS011;31053;55.870;37.592;2022-07-29T01:07:03;3.78;;;1.08;;
45316;SDS011;31053;55.870;37.592;2022-07-29T01:10:09;2.97;;;1.00;;
45316;SDS011;31053;55.870;37.592;2022-07-29T01:13:15;2.35;;;0.80;;
45316;SDS011;31053;55.870;37.592;2022-07-29T01:16:30;3.83;;;0.70;;
45316;SDS011;31053;55.870;37.592;2022-07-29T01:19:45;5.65;;;0.80;;
45316;SDS011;31053;55.870;37.592;2022-07-29T01:29:43;4.95;;;0.85;;
45316;SDS011;31053;55.870;37.592;2022-07-29T01:32:54;2.92;;;0.77;;
45316;SDS011;31053;55.870;37.592;2022-07-29T01:36:06;2.83;;;0.68;;
45316;SDS011;31053;55.870;37.592;2022-07-29T01:39:20;3.85;;;1.10;;
45316;SDS011;31053;55.870;37.592;2022-07-29T01:42:36;1.98;;;0.82;;
45316;SDS011;31053;55.870;37.592;2022-07-29T01:45:45;5.25;;;0.93;;
45316;SDS011;31053;55.870;37.592;2022-07-29T01:52:36;3.28;;;0.82;;
45316;SDS011;31053;55.870;37.592;2022-07-29T01:55:44;3.88;;;1.00;;
45316;SDS011;31053;55.870;37.592;2022-07-29T01:58:48;5.57;;;1.17;;
45316;SDS011;31053;55.870;37.592;2022-07-29T02:01:53;2.13;;;0.70;;
45316;SDS011;31053;55.870;37.592;2022-07-29T02:04:59;3.63;;;1.08;;
45316;SDS011;31053;55.870;37.592;2022-07-29T02:08:04;5.13;;;1.00;;
45316;SDS011;31053;55.870;37.592;2022-07-29T02:11:09;3.15;;;0.82;;
45316;SDS011;31053;55.870;37.592;2022-07-29T02:14:13;2.45;;;0.88;;
45316;SDS011;31053;55.870;37.592;2022-07-29T02:17:21;3.75;;;0.98;;
45316;SDS011;31053;55.870;37.592;2022-07-29T02:20:28;2.78;;;0.75;;
45316;SDS011;31053;55.870;37.592;2022-07-29T02:23:33;1.48;;;0.90;;
45316;SDS011;31053;55.870;37.592;2022-07-29T02:26:39;9.95;;;1.58;;
45316;SDS011;31053;55.870;37.592;2022-07-29T02:29:45;4.15;;;0.90;;
45316;SDS011;31053;55.870;37.592;2022-07-29T02:32:51;5.20;;;0.93;;
45316;SDS011;31053;55.870;37.592;2022-07-29T02:35:56;4.45;;;1.58;;
45316;SDS011;31053;55.870;37.592;2022-07-29T02:39:01;5.57;;;0.88;;
45316;SDS011;31053;55.870;37.592;2022-07-29T02:42:08;3.97;;;0.82;;
45316;SDS011;31053;55.870;37.592;2022-07-29T02:45:15;3.22;;;1.00;;
45316;SDS011;31053;55.870;37.592;2022-07-29T02:48:22;3.53;;;1.00;;
45316;SDS011;31053;55.870;37.592;2022-07-29T02:51:34;4.13;;;1.30;;
45316;SDS011;31053;55.870;37.592;2022-07-29T02:54:58;5.05;;;0.82;;
45316;SDS011;31053;55.870;37.592;2022-07-29T03:01:32;6.20;;;1.35;;
45316;SDS011;31053;55.870;37.592;2022-07-29T03:04:39;3.08;;;0.95;;
45316;SDS011;31053;55.870;37.592;2022-07-29T03:07:46;3.13;;;0.80;;
45316;SDS011;31053;55.870;37.592;2022-07-29T03:10:55;1.45;;;0.45;;
45316;SDS011;31053;55.870;37.592;2022-07-29T03:14:00;3.00;;;0.60;;
45316;SDS011;31053;55.870;37.592;2022-07-29T03:17:05;5.60;;;0.60;;
45316;SDS011;31053;55.870;37.592;2022-07-29T03:20:11;4.45;;;0.75;;
45316;SDS011;31053;55.870;37.592;2022-07-29T03:23:21;4.45;;;0.65;;
45316;SDS011;31053;55.870;37.592;2022-07-29T03:26:28;3.33;;;1.05;;
45316;SDS011;31053;55.870;37.592;2022-07-29T03:29:33;1.27;;;0.47;;
45316;SDS011;31053;55.870;37.592;2022-07-29T03:32:39;2.13;;;0.57;;
45316;SDS011;31053;55.870;37.592;2022-07-29T03:35:44;4.57;;;0.75;;
45316;SDS011;31053;55.870;37.592;2022-07-29T03:38:48;9.70;;;0.93;;
45316;SDS011;31053;55.870;37.592;2022-07-29T03:41:55;1.77;;;0.70;;
45316;SDS011;31053;55.870;37.592;2022-07-29T03:48:10;4.97;;;0.73;;
45316;SDS011;31053;55.870;37.592;2022-07-29T03:51:17;2.60;;;0.85;;
45316;SDS011;31053;55.870;37.592;2022-07-29T03:54:22;4.40;;;1.40;;
45316;SDS011;31053;55.870;37.592;2022-07-29T03:57:27;3.47;;;1.15;;
45316;SDS011;31053;55.870;37.592;2022-07-29T04:00:32;4.07;;;0.70;;
45316;SDS011;31053;55.870;37.592;2022-07-29T04:03:38;2.50;;;0.80;;
45316;SDS011;31053;55.870;37.592;2022-07-29T04:06:44;6.35;;;0.80;;
45316;SDS011;31053;55.870;37.592;2022-07-29T04:09:49;1.40;;;0.83;;
45316;SDS011;31053;55.870;37.592;2022-07-29T04:12:54;3.67;;;0.60;;
45316;SDS011;31053;55.870;37.592;2022-07-29T04:15:59;4.07;;;0.90;;
45316;SDS011;31053;55.870;37.592;2022-07-29T04:19:03;1.70;;;0.52;;
45316;SDS011;31053;55.870;37.592;2022-07-29T04:22:08;2.40;;;0.57;;
45316;SDS011;31053;55.870;37.592;2022-07-29T04:25:13;3.08;;;0.77;;
45316;SDS011;31053;55.870;37.592;2022-07-29T04:28:17;3.08;;;0.90;;
45316;SDS011;31053;55.870;37.592;2022-07-29T04:31:22;1.42;;;0.60;;
45316;SDS011;31053;55.870;37.592;2022-07-29T04:34:27;4.05;;;0.57;;
45316;SDS011;31053;55.870;37.592;2022-07-29T04:37:32;2.55;;;0.82;;
45316;SDS011;31053;55.870;37.592;2022-07-29T04:40:37;5.30;;;0.50;;
45316;SDS011;31053;55.870;37.592;2022-07-29T04:43:41;5.60;;;1.60;;
45316;SDS011;31053;55.870;37.592;2022-07-29T04:46:45;3.65;;;1.02;;
45316;SDS011;31053;55.870;37.592;2022-07-29T04:49:50;3.45;;;0.70;;
45316;SDS011;31053;55.870;37.592;2022-07-29T04:53:12;5.47;;;0.40;;
45316;SDS011;31053;55.870;37.592;2022-07-29T04:56:17;6.75;;;0.68;;
45316;SDS011;31053;55.870;37.592;2022-07-29T04:59:21;4.40;;;0.70;;
45316;SDS011;31053;55.870;37.592;2022-07-29T05:02:26;1.40;;;0.63;;
45316;SDS011;31053;55.870;37.592;2022-07-29T05:05:31;1.90;;;1.25;;
45316;SDS011;31053;55.870;37.592;2022-07-29T05:08:35;1.75;;;0.55;;
45316;SDS011;31053;55.870;37.592;2022-07-29T05:11:39;2.55;;;0.60;;
45316;SDS011;31053;55.870;37.592;2022-07-29T05:14:45;3.75;;;0.77;;
45316;SDS011;31053;55.870;37.592;2022-07-29T05:17:50;4.45;;;0.68;;
45316;SDS011;31053;55.870;37.592;2022-07-29T05:20:55;2.25;;;0.50;;
45316;SDS011;31053;55.870;37.592;2022-07-29T05:23:59;2.40;;;0.77;;
45316;SDS011;31053;55.870;37.592;2022-07-29T05:27:05;3.55;;;0.90;;
45316;SDS011;31053;55.870;37.592;2022-07-29T05:30:10;4.30;;;0.75;;
45316;SDS011;31053;55.870;37.592;2022-07-29T05:33:15;1.77;;;0.50;;
45316;SDS011;31053;55.870;37.592;2022-07-29T05:36:20;1.10;;;0.65;;
45316;SDS011;31053;55.870;37.592;2022-07-29T05:39:25;4.35;;;0.40;;
45316;SDS011;31053;55.870;37.592;2022-07-29T05:42:35;2.55;;;0.70;;
45316;SDS011;31053;55.870;37.592;2022-07-29T05:45:39;3.60;;;1.08;;
45316;SDS011;31053;55.870;37.592;2022-07-29T05:48:47;1.63;;;0.40;;
45316;SDS011;31053;55.870;37.592;2022-07-29T05:51:52;4.10;;;0.90;;
45316;SDS011;31053;55.870;37.592;2022-07-29T05:54:59;2.47;;;0.60;;
45316;SDS011;31053;55.870;37.592;2022-07-29T05:58:08;3.55;;;1.05;;
45316;SDS011;31053;55.870;37.592;2022-07-29T06:01:13;1.10;;;0.60;;
45316;SDS011;31053;55.870;37.592;2022-07-29T06:04:18;0.80;;;0.30;;
45316;SDS011;31053;55.870;37.592;2022-07-29T06:07:22;0.90;;;0.45;;
45316;SDS011;31053;55.870;37.592;2022-07-29T06:10:27;2.17;;;0.45;;
45316;SDS011;31053;55.870;37.592;2022-07-29T06:13:32;1.55;;;0.30;;
45316;SDS011;31053;55.870;37.592;2022-07-29T06:16:36;3.50;;;0.50;;
45316;SDS011;31053;55.870;37.592;2022-07-29T06:19:40;3.25;;;0.63;;
45316;SDS011;31053;55.870;37.592;2022-07-29T06:22:46;1.58;;;0.40;;
45316;SDS011;31053;55.870;37.592;2022-07-29T06:25:50;1.02;;;0.35;;
45316;SDS011;31053;55.870;37.592;2022-07-29T06:28:55;1.73;;;0.60;;
45316;SDS011;31053;55.870;37.592;2022-07-29T06:31:59;1.35;;;0.30;;
45316;SDS011;31053;55.870;37.592;2022-07-29T06:35:04;2.45;;;0.45;;
45316;SDS011;31053;55.870;37.592;2022-07-29T06:38:10;3.33;;;0.57;;
45316;SDS011;31053;55.870;37.592;2022-07-29T06:41:15;2.13;;;0.38;;
45316;SDS011;31053;55.870;37.592;2022-07-29T06:44:20;7.00;;;0.60;;
45316;SDS011;31053;55.870;37.592;2022-07-29T06:47:24;0.88;;;0.25;;
45316;SDS011;31053;55.870;37.592;2022-07-29T06:50:29;7.70;;;0.30;;
45316;SDS011;31053;55.870;37.592;2022-07-29T06:53:34;3.40;;;0.30;;
45316;SDS011;31053;55.870;37.592;2022-07-29T06:56:39;4.03;;;0.73;;
45316;SDS011;31053;55.870;37.592;2022-07-29T06:59:45;0.65;;;0.20;;
45316;SDS011;31053;55.870;37.592;2022-07-29T07:02:51;1.50;;;0.22;;
45316;SDS011;31053;55.870;37.592;2022-07-29T07:05:56;1.03;;;0.30;;
45316;SDS011;31053;55.870;37.592;2022-07-29T07:09:02;3.88;;;0.30;;
45316;SDS011;31053;55.870;37.592;2022-07-29T07:12:10;2.55;;;0.35;;
45316;SDS011;31053;55.870;37.592;2022-07-29T07:15:14;4.40;;;0.30;;
45316;SDS011;31053;55.870;37.592;2022-07-29T07:18:18;1.80;;;0.28;;
45316;SDS011;31053;55.870;37.592;2022-07-29T07:21:23;1.95;;;0.50;;
45316;SDS011;31053;55.870;37.592;2022-07-29T07:24:29;0.85;;;0.40;;
45316;SDS011;31053;55.870;37.592;2022-07-29T07:27:34;1.35;;;0.47;;
45316;SDS011;31053;55.870;37.592;2022-07-29T07:30:52;0.88;;;0.30;;
45316;SDS011;31053;55.870;37.592;2022-07-29T07:33:57;0.90;;;0.30;;
45316;SDS011;31053;55.870;37.592;2022-07-29T07:37:02;8.80;;;0.30;;
45316;SDS011;31053;55.870;37.592;2022-07-29T07:40:07;5.63;;;0.30;;
45316;SDS011;31053;55.870;37.592;2022-07-29T07:43:13;2.20;;;0.22;;
45316;SDS011;31053;55.870;37.592;2022-07-29T07:46:31;1.65;;;0.30;;
45316;SDS011;31053;55.870;37.592;2022-07-29T07:49:39;1.52;;;0.38;;
45316;SDS011;31053;55.870;37.592;2022-07-29T07:52:49;3.10;;;1.10;;
45316;SDS011;31053;55.870;37.592;2022-07-29T08:01:38;1.27;;;0.30;;
45316;SDS011;31053;55.870;37.592;2022-07-29T08:04:42;4.63;;;0.40;;
45316;SDS011;31053;55.870;37.592;2022-07-29T08:07:47;4.18;;;0.20;;
45316;SDS011;31053;55.870;37.592;2022-07-29T08:10:52;4.05;;;0.30;;
45316;SDS011;31053;55.870;37.592;2022-07-29T08:13:57;2.60;;;0.60;;
45316;SDS011;31053;55.870;37.592;2022-07-29T08:17:05;2.47;;;0.30;;
45316;SDS011;31053;55.870;37.592;2022-07-29T08:20:09;2.33;;;0.50;;
45316;SDS011;31053;55.870;37.592;2022-07-29T08:23:14;1.77;;;0.57;;
45316;SDS011;31053;55.870;37.592;2022-07-29T08:26:19;1.20;;;0.60;;
45316;SDS011;31053;55.870;37.592;2022-07-29T08:29:26;1.50;;;0.40;;
45316;SDS011;31053;55.870;37.592;2022-07-29T08:32:34;5.10;;;0.50;;
45316;SDS011;31053;55.870;37.592;2022-07-29T08:35:39;5.95;;;1.00;;
45316;SDS011;31053;55.870;37.592;2022-07-29T08:38:44;2.13;;;0.30;;
45316;SDS011;31053;55.870;37.592;2022-07-29T08:41:50;0.85;;;0.20;;
45316;SDS011;31053;55.870;37.592;2022-07-29T08:44:55;1.17;;;0.20;;
45316;SDS011;31053;55.870;37.592;2022-07-29T08:48:00;0.93;;;0.40;;
45316;SDS011;31053;55.870;37.592;2022-07-29T08:51:05;0.73;;;0.20;;
45316;SDS011;31053;55.870;37.592;2022-07-29T08:54:11;2.92;;;0.38;;
45316;SDS011;31053;55.870;37.592;2022-07-29T08:57:21;2.05;;;0.10;;
45316;SDS011;31053;55.870;37.592;2022-07-29T09:00:27;0.63;;;0.20;;
45316;SDS011;31053;55.870;37.592;2022-07-29T09:03:33;1.48;;;0.30;;
45316;SDS011;31053;55.870;37.592;2022-07-29T09:06:41;1.25;;;0.20;;
45316;SDS011;31053;55.870;37.592;2022-07-29T09:09:47;0.88;;;0.40;;
45316;SDS011;31053;55.870;37.592;2022-07-29T09:12:54;3.28;;;0.30;;
45316;SDS011;31053;55.870;37.592;2022-07-29T09:19:03;2.13;;;0.40;;
45316;SDS011;31053;55.870;37.592;2022-07-29T09:22:30;0.20;;;0.20;;
45316;SDS011;31053;55.870;37.592;2022-07-29T09:25:38;0.32;;;0.15;;
45316;SDS011;31053;55.870;37.592;2022-07-29T09:28:44;1.75;;;0.35;;
45316;SDS011;31053;55.870;37.592;2022-07-29T09:31:52;3.78;;;0.40;;
45316;SDS011;31053;55.870;37.592;2022-07-29T09:35:13;0.93;;;0.30;;
45316;SDS011;31053;55.870;37.592;2022-07-29T09:38:22;2.55;;;0.35;;
45316;SDS011;31053;55.870;37.592;2022-07-29T09:41:28;2.45;;;0.30;;
45316;SDS011;31053;55.870;37.592;2022-07-29T09:44:41;3.83;;;0.60;;
45316;SDS011;31053;55.870;37.592;2022-07-29T09:47:53;0.68;;;0.17;;
45316;SDS011;31053;55.870;37.592;2022-07-29T09:50:59;3.70;;;0.77;;
45316;SDS011;31053;55.870;37.592;2022-07-29T09:54:21;4.25;;;0.20;;
45316;SDS011;31053;55.870;37.592;2022-07-29T09:57:33;3.05;;;0.35;;
45316;SDS011;31053;55.870;37.592;2022-07-29T10:00:37;0.45;;;0.20;;
45316;SDS011;31053;55.870;37.592;2022-07-29T10:03:54;0.40;;;0.20;;
45316;SDS011;31053;55.870;37.592;2022-07-29T10:07:00;0.98;;;0.77;;
45316;SDS011;31053;55.870;37.592;2022-07-29T10:10:10;1.85;;;0.10;;
45316;SDS011;31053;55.870;37.592;2022-07-29T10:13:15;0.28;;;0.20;;
45316;SDS011;31053;55.870;37.592;2022-07-29T10:16:20;0.30;;;0.20;;
45316;SDS011;31053;55.870;37.592;2022-07-29T10:19:26;1.70;;;0.35;;
45316;SDS011;31053;55.870;37.592;2022-07-29T10:22:35;0.73;;;0.32;;
45316;SDS011;31053;55.870;37.592;2022-07-29T10:25:41;2.95;;;0.28;;
45316;SDS011;31053;55.870;37.592;2022-07-29T10:28:45;0.10;;;0.10;;
45316;SDS011;31053;55.870;37.592;2022-07-29T10:32:08;1.25;;;0.40;;
45316;SDS011;31053;55.870;37.592;2022-07-29T10:39:05;2.05;;;0.30;;
45316;SDS011;31053;55.870;37.592;2022-07-29T10:42:35;0.68;;;0.10;;
45316;SDS011;31053;55.870;37.592;2022-07-29T10:45:45;1.58;;;0.20;;
45316;SDS011;31053;55.870;37.592;2022-07-29T10:49:07;0.65;;;0.20;;
45316;SDS011;31053;55.870;37.592;2022-07-29T10:52:15;0.38;;;0.20;;
45316;SDS011;31053;55.870;37.592;2022-07-29T10:55:30;0.98;;;0.52;;
45316;SDS011;31053;55.870;37.592;2022-07-29T10:58:36;1.08;;;0.20;;
45316;SDS011;31053;55.870;37.592;2022-07-29T11:01:50;0.93;;;0.10;;
45316;SDS011;31053;55.870;37.592;2022-07-29T11:05:18;0.80;;;0.20;;
45316;SDS011;31053;55.870;37.592;2022-07-29T11:08:30;1.17;;;0.20;;
45316;SDS011;31053;55.870;37.592;2022-07-29T11:11:56;0.50;;;0.40;;
45316;SDS011;31053;55.870;37.592;2022-07-29T11:24:43;2.85;;;0.40;;
45316;SDS011;31053;55.870;37.592;2022-07-29T11:27:51;1.45;;;0.57;;
45316;SDS011;31053;55.870;37.592;2022-07-29T11:31:00;5.25;;;0.63;;
45316;SDS011;31053;55.870;37.592;2022-07-29T11:37:36;2.78;;;0.32;;
45316;SDS011;31053;55.870;37.592;2022-07-29T11:40:41;6.13;;;0.50;;
45316;SDS011;31053;55.870;37.592;2022-07-29T11:48:17;0.95;;;0.30;;
45316;SDS011;31053;55.870;37.592;2022-07-29T11:51:36;2.28;;;0.50;;
45316;SDS011;31053;55.870;37.592;2022-07-29T11:54:48;0.68;;;0.25;;
45316;SDS011;31053;55.870;37.592;2022-07-29T12:01:05;4.65;;;0.20;;
45316;SDS011;31053;55.870;37.592;2022-07-29T12:04:19;2.35;;;0.80;;
45316;SDS011;31053;55.870;37.592;2022-07-29T12:07:29;2.00;;;0.45;;
45316;SDS011;31053;55.870;37.592;2022-07-29T12:10:37;0.15;;;0.10;;
45316;SDS011;31053;55.870;37.592;2022-07-29T12:14:00;2.15;;;0.40;;
45316;SDS011;31053;55.870;37.592;2022-07-29T12:17:25;2.00;;;0.30;;
45316;SDS011;31053;55.870;37.592;2022-07-29T12:20:31;1.52;;;0.38;;
45316;SDS011;31053;55.870;37.592;2022-07-29T12:23:42;0.47;;;0.30;;
45316;SDS011;31053;55.870;37.592;2022-07-29T12:27:10;0.40;;;0.35;;
45316;SDS011;31053;55.870;37.592;2022-07-29T12:30:16;2.63;;;0.40;;
45316;SDS011;31053;55.870;37.592;2022-07-29T12:33:28;2.40;;;0.50;;
45316;SDS011;31053;55.870;37.592;2022-07-29T12:36:56;1.42;;;0.40;;
45316;SDS011;31053;55.870;37.592;2022-07-29T12:40:08;0.90;;;0.20;;
45316;SDS011;31053;55.870;37.592;2022-07-29T12:43:18;1.63;;;0.20;;
45316;SDS011;31053;55.870;37.592;2022-07-29T12:47:00;4.00;;;0.30;;
45316;SDS011;31053;55.870;37.592;2022-07-29T12:50:17;1.30;;;0.30;;
45316;SDS011;31053;55.870;37.592;2022-07-29T12:53:27;0.60;;;0.20;;
45316;SDS011;31053;55.870;37.592;2022-07-29T12:56:40;1.85;;;0.43;;
45316;SDS011;31053;55.870;37.592;2022-07-29T12:59:58;1.23;;;0.20;;
45316;SDS011;31053;55.870;37.592;2022-07-29T13:03:42;3.72;;;0.32;;
45316;SDS011;31053;55.870;37.592;2022-07-29T13:07:00;0.70;;;0.22;;
45316;SDS011;31053;55.870;37.592;2022-07-29T13:10:23;0.65;;;0.20;;
45316;SDS011;31053;55.870;37.592;2022-07-29T13:13:44;3.97;;;0.38;;
45316;SDS011;31053;55.870;37.592;2022-07-29T13:17:11;0.20;;;0.20;;
45316;SDS011;31053;55.870;37.592;2022-07-29T13:20:44;0.28;;;0.17;;
45316;SDS011;31053;55.870;37.592;2022-07-29T13:23:53;3.60;;;0.40;;
45316;SDS011;31053;55.870;37.592;2022-07-29T13:28:33;0.82;;;0.28;;
45316;SDS011;31053;55.870;37.592;2022-07-29T13:32:15;1.83;;;0.40;;
45316;SDS011;31053;55.870;37.592;2022-07-29T13:35:25;2.20;;;0.47;;
45316;SDS011;31053;55.870;37.592;2022-07-29T13:39:07;0.35;;;0.20;;
45316;SDS011;31053;55.870;37.592;2022-07-29T13:42:13;1.60;;;0.35;;
45316;SDS011;31053;55.870;37.592;2022-07-29T13:45:44;0.35;;;0.20;;
45316;SDS011;31053;55.870;37.592;2022-07-29T13:48:59;2.13;;;0.65;;
45316;SDS011;31053;55.870;37.592;2022-07-29T13:52:07;1.75;;;0.57;;
45316;SDS011;31053;55.870;37.592;2022-07-29T13:55:17;1.33;;;0.20;;
45316;SDS011;31053;55.870;37.592;2022-07-29T13:58:25;0.15;;;0.15;;
45316;SDS011;31053;55.870;37.592;2022-07-29T14:01:36;1.02;;;0.30;;
45316;SDS011;31053;55.870;37.592;2022-07-29T14:04:45;2.75;;;0.50;;
45316;SDS011;31053;55.870;37.592;2022-07-29T14:07:54;2.78;;;0.20;;
45316;SDS011;31053;55.870;37.592;2022-07-29T14:10:59;2.03;;;0.20;;
45316;SDS011;31053;55.870;37.592;2022-07-29T14:14:09;1.55;;;0.30;;
45316;SDS011;31053;55.870;37.592;2022-07-29T14:17:15;3.72;;;0.22;;
45316;SDS011;31053;55.870;37.592;2022-07-29T14:20:24;1.98;;;0.40;;
45316;SDS011;31053;55.870;37.592;2022-07-29T14:23:34;0.20;;;0.20;;
45316;SDS011;31053;55.870;37.592;2022-07-29T14:26:49;0.60;;;0.20;;
45316;SDS011;31053;55.870;37.592;2022-07-29T14:29:59;0.75;;;0.20;;
45316;SDS011;31053;55.870;37.592;2022-07-29T14:33:05;0.47;;;0.30;;
45316;SDS011;31053;55.870;37.592;2022-07-29T14:36:12;1.60;;;0.50;;
45316;SDS011;31053;55.870;37.592;2022-07-29T14:39:17;1.42;;;0.38;;
45316;SDS011;31053;55.870;37.592;2022-07-29T14:42:25;0.30;;;0.20;;
45316;SDS011;31053;55.870;37.592;2022-07-29T14:45:32;0.90;;;0.32;;
45316;SDS011;31053;55.870;37.592;2022-07-29T14:48:39;3.00;;;0.30;;
45316;SDS011;31053;55.870;37.592;2022-07-29T14:51:45;1.73;;;0.35;;
45316;SDS011;31053;55.870;37.592;2022-07-29T14:54:59;0.98;;;0.20;;
45316;SDS011;31053;55.870;37.592;2022-07-29T14:58:18;0.43;;;0.30;;
45316;SDS011;31053;55.870;37.592;2022-07-29T15:01:32;0.95;;;0.40;;
45316;SDS011;31053;55.870;37.592;2022-07-29T15:04:37;1.15;;;0.20;;
45316;SDS011;31053;55.870;37.592;2022-07-29T15:07:53;0.38;;;0.20;;
45316;SDS011;31053;55.870;37.592;2022-07-29T15:11:12;1.05;;;0.40;;
45316;SDS011;31053;55.870;37.592;2022-07-29T15:14:30;2.67;;;0.20;;
45316;SDS011;31053;55.870;37.592;2022-07-29T15:17:52;0.82;;;0.50;;
45316;SDS011;31053;55.870;37.592;2022-07-29T15:21:43;3.75;;;0.50;;
45316;SDS011;31053;55.870;37.592;2022-07-29T15:25:09;3.45;;;0.30;;
45316;SDS011;31053;55.870;37.592;2022-07-29T15:28:55;1.83;;;0.52;;
45316;SDS011;31053;55.870;37.592;2022-07-29T15:32:28;1.98;;;0.40;;
45316;SDS011;31053;55.870;37.592;2022-07-29T15:35:53;3.65;;;0.70;;
45316;SDS011;31053;55.870;37.592;2022-07-29T15:39:04;12.48;;;0.70;;
45316;SDS011;31053;55.870;37.592;2022-07-29T15:42:35;8.95;;;0.88;;
45316;SDS011;31053;55.870;37.592;2022-07-29T15:45:46;7.43;;;0.98;;
45316;SDS011;31053;55.870;37.592;2022-07-29T15:57:26;5.10;;;0.60;;
45316;SDS011;31053;55.870;37.592;2022-07-29T16:00:35;3.40;;;0.50;;
45316;SDS011;31053;55.870;37.592;2022-07-29T16:03:46;3.90;;;0.40;;
45316;SDS011;31053;55.870;37.592;2022-07-29T16:06:54;7.95;;;0.50;;
45316;SDS011;31053;55.870;37.592;2022-07-29T16:10:01;2.35;;;0.47;;
45316;SDS011;31053;55.870;37.592;2022-07-29T16:13:15;1.70;;;0.77;;
45316;SDS011;31053;55.870;37.592;2022-07-29T16:16:21;6.65;;;0.95;;
45316;SDS011;31053;55.870;37.592;2022-07-29T16:19:27;1.77;;;0.63;;
45316;SDS011;31053;55.870;37.592;2022-07-29T16:22:35;9.13;;;0.82;;
45316;SDS011;31053;55.870;37.592;2022-07-29T16:25:41;4.93;;;0.77;;
45316;SDS011;31053;55.870;37.592;2022-07-29T16:28:49;0.95;;;0.30;;
45316;SDS011;31053;55.870;37.592;2022-07-29T16:31:55;1.48;;;0.57;;
45316;SDS011;31053;55.870;37.592;2022-07-29T16:35:02;5.38;;;2.78;;
45316;SDS011;31053;55.870;37.592;2022-07-29T16:38:09;3.70;;;1.48;;
45316;SDS011;31053;55.870;37.592;2022-07-29T16:41:17;4.15;;;2.22;;
45316;SDS011;31053;55.870;37.592;2022-07-29T16:44:29;8.20;;;1.30;;
45316;SDS011;31053;55.870;37.592;2022-07-29T16:47:37;3.40;;;0.80;;
45316;SDS011;31053;55.870;37.592;2022-07-29T16:50:42;4.07;;;0.75;;
45316;SDS011;31053;55.870;37.592;2022-07-29T16:53:48;5.57;;;0.38;;
45316;SDS011;31053;55.870;37.592;2022-07-29T16:56:55;4.18;;;0.63;;
45316;SDS011;31053;55.870;37.592;2022-07-29T17:00:03;1.63;;;0.68;;
45316;SDS011;31053;55.870;37.592;2022-07-29T17:03:18;5.38;;;0.60;;
45316;SDS011;31053;55.870;37.592;2022-07-29T17:06:23;5.20;;;0.88;;
45316;SDS011;31053;55.870;37.592;2022-07-29T17:12:43;3.28;;;0.60;;
45316;SDS011;31053;55.870;37.592;2022-07-29T17:15:49;8.88;;;0.85;;
45316;SDS011;31053;55.870;37.592;2022-07-29T17:18:57;11.88;;;0.90;;
45316;SDS011;31053;55.870;37.592;2022-07-29T17:22:06;3.15;;;0.65;;
45316;SDS011;31053;55.870;37.592;2022-07-29T17:25:14;4.95;;;1.33;;
45316;SDS011;31053;55.870;37.592;2022-07-29T17:28:23;4.85;;;0.80;;
45316;SDS011;31053;55.870;37.592;2022-07-29T17:31:33;3.15;;;0.88;;
45316;SDS011;31053;55.870;37.592;2022-07-29T17:34:40;2.87;;;0.93;;
45316;SDS011;31053;55.870;37.592;2022-07-29T17:37:45;3.67;;;1.00;;
45316;SDS011;31053;55.870;37.592;2022-07-29T17:40:50;1.73;;;0.70;;
45316;SDS011;31053;55.870;37.592;2022-07-29T17:43:59;7.95;;;0.88;;
45316;SDS011;31053;55.870;37.592;2022-07-29T17:47:07;2.05;;;0.70;;
45316;SDS011;31053;55.870;37.592;2022-07-29T17:50:16;8.20;;;4.05;;
45316;SDS011;31053;55.870;37.592;2022-07-29T17:53:26;2.95;;;1.75;;
45316;SDS011;31053;55.870;37.592;2022-07-29T17:56:35;10.95;;;6.97;;
45316;SDS011;31053;55.870;37.592;2022-07-29T17:59:47;25.67;;;15.38;;
45316;SDS011;31053;55.870;37.592;2022-07-29T18:03:09;34.60;;;21.30;;
45316;SDS011;31053;55.870;37.592;2022-07-29T18:06:14;16.55;;;8.52;;
45316;SDS011;31053;55.870;37.592;2022-07-29T18:09:30;8.02;;;3.65;;
45316;SDS011;31053;55.870;37.592;2022-07-29T18:12:42;7.55;;;2.90;;
45316;SDS011;31053;55.870;37.592;2022-07-29T18:15:53;6.57;;;2.05;;
45316;SDS011;31053;55.870;37.592;2022-07-29T18:18:58;14.55;;;5.18;;
45316;SDS011;31053;55.870;37.592;2022-07-29T18:22:14;11.93;;;3.17;;
45316;SDS011;31053;55.870;37.592;2022-07-29T18:25:18;10.25;;;4.13;;
45316;SDS011;31053;55.870;37.592;2022-07-29T18:28:25;4.57;;;1.25;;
45316;SDS011;31053;55.870;37.592;2022-07-29T18:31:35;2.80;;;0.88;;
45316;SDS011;31053;55.870;37.592;2022-07-29T18:34:46;2.45;;;0.65;;
45316;SDS011;31053;55.870;37.592;2022-07-29T18:37:57;3.88;;;0.93;;
45316;SDS011;31053;55.870;37.592;2022-07-29T18:41:05;1.45;;;0.73;;
45316;SDS011;31053;55.870;37.592;2022-07-29T18:44:17;3.38;;;0.90;;
45316;SDS011;31053;55.870;37.592;2022-07-29T18:47:24;2.58;;;0.90;;
45316;SDS011;31053;55.870;37.592;2022-07-29T18:50:29;3.80;;;0.90;;
45316;SDS011;31053;55.870;37.592;2022-07-29T18:53:35;4.20;;;1.10;;
45316;SDS011;31053;55.870;37.592;2022-07-29T18:59:47;4.45;;;1.35;;
45316;SDS011;31053;55.870;37.592;2022-07-29T19:02:59;2.22;;;1.23;;
45316;SDS011;31053;55.870;37.592;2022-07-29T19:06:06;3.72;;;0.93;;
45316;SDS011;31053;55.870;37.592;2022-07-29T19:09:12;6.20;;;1.03;;
45316;SDS011;31053;55.870;37.592;2022-07-29T19:12:23;2.70;;;0.98;;
45316;SDS011;31053;55.870;37.592;2022-07-29T19:18:34;2.88;;;0.90;;
45316;SDS011;31053;55.870;37.592;2022-07-29T19:21:39;4.93;;;0.70;;
45316;SDS011;31053;55.870;37.592;2022-07-29T19:24:52;1.58;;;0.70;;
45316;SDS011;31053;55.870;37.592;2022-07-29T19:28:02;1.45;;;0.43;;
45316;SDS011;31053;55.870;37.592;2022-07-29T19:31:21;2.92;;;0.90;;
45316;SDS011;31053;55.870;37.592;2022-07-29T19:34:50;3.05;;;2.03;;
45316;SDS011;31053;55.870;37.592;2022-07-29T19:38:25;7.43;;;1.10;;
45316;SDS011;31053;55.870;37.592;2022-07-29T19:41:49;1.27;;;0.60;;
45316;SDS011;31053;55.870;37.592;2022-07-29T19:44:54;3.10;;;0.85;;
45316;SDS011;31053;55.870;37.592;2022-07-29T19:48:01;1.58;;;0.68;;
45316;SDS011;31053;55.870;37.592;2022-07-29T19:51:09;1.92;;;0.80;;
45316;SDS011;31053;55.870;37.592;2022-07-29T19:54:17;2.97;;;0.60;;